sensor_id;sensor_type;location;lat;lon;timestamp;P1;durP1;ratioP1;P2;durP2;ratioP2
6537;SDS011;3302;52.508;13.454;2023-04-07T00:00:51;11.87;;;8.17;;
6537;SDS011;3302;52.508;13.454;2023-04-07T00:03:17;9.93;;;6.93;;
6537;SDS011;3302;52.508;13.454;2023-04-07T00:05:43;10.17;;;7.47;;
6537;SDS011;3302;52.508;13.454;2023-04-07T00:08:08;11.20;;;8.10;;
6537;SDS011;3302;52.508;13.454;2023-04-07T00:10:34;11.50;;;8.20;;
6537;SDS011;3302;52.508;13.454;2023-04-07T00:13:00;10.17;;;7.60;;
6537;SDS011;3302;52.508;13.454;2023-04-07T00:15:26;11.50;;;7.73;;
6537;SDS011;3302;52.508;13.454;2023-04-07T00:17:52;14.47;;;8.87;;
6537;SDS011;3302;52.508;13.454;2023-04-07T00:20:18;13.70;;;9.07;;
6537;SDS011;3302;52.508;13.454;2023-04-07T00:22:44;20.23;;;12.07;;
6537;SDS011;3302;52.508;13.454;2023-04-07T00:25:09;19.27;;;11.00;;
6537;SDS011;3302;52.508;13.454;2023-04-07T00:27:35;15.70;;;9.50;;
6537;SDS011;3302;52.508;13.454;2023-04-07T00:30:01;11.40;;;7.30;;
6537;SDS011;3302;52.508;13.454;2023-04-07T00:32:28;14.53;;;9.37;;
6537;SDS011;3302;52.508;13.454;2023-04-07T00:34:54;9.97;;;7.00;;
6537;SDS011;3302;52.508;13.454;2023-04-07T00:37:19;8.00;;;5.70;;
6537;SDS011;3302;52.508;13.454;2023-04-07T00:39:45;7.77;;;5.47;;
6537;SDS011;3302;52.508;13.454;2023-04-07T00:42:11;8.40;;;5.67;;
6537;SDS011;3302;52.508;13.454;2023-04-07T00:44:37;8.77;;;6.37;;
6537;SDS011;3302;52.508;13.454;2023-04-07T00:47:03;8.67;;;6.07;;
6537;SDS011;3302;52.508;13.454;2023-04-07T00:49:28;7.70;;;5.50;;
6537;SDS011;3302;52.508;13.454;2023-04-07T00:51:58;5.60;;;4.67;;
6537;SDS011;3302;52.508;13.454;2023-04-07T00:54:25;8.93;;;5.50;;
6537;SDS011;3302;52.508;13.454;2023-04-07T00:56:51;7.47;;;5.30;;
6537;SDS011;3302;52.508;13.454;2023-04-07T00:59:17;6.47;;;5.07;;
6537;SDS011;3302;52.508;13.454;2023-04-07T01:07:08;8.60;;;5.37;;
6537;SDS011;3302;52.508;13.454;2023-04-07T01:09:42;6.77;;;4.73;;
6537;SDS011;3302;52.508;13.454;2023-04-07T01:14:49;11.37;;;5.53;;
6537;SDS011;3302;52.508;13.454;2023-04-07T01:17:18;8.00;;;4.87;;
6537;SDS011;3302;52.508;13.454;2023-04-07T01:19:51;6.73;;;4.87;;
6537;SDS011;3302;52.508;13.454;2023-04-07T01:22:22;5.90;;;4.70;;
6537;SDS011;3302;52.508;13.454;2023-04-07T01:30:23;8.67;;;5.37;;
6537;SDS011;3302;52.508;13.454;2023-04-07T01:32:53;6.47;;;4.73;;
6537;SDS011;3302;52.508;13.454;2023-04-07T01:35:22;8.17;;;4.80;;
6537;SDS011;3302;52.508;13.454;2023-04-07T01:37:49;8.57;;;5.50;;
6537;SDS011;3302;52.508;13.454;2023-04-07T01:40:16;7.20;;;5.50;;
6537;SDS011;3302;52.508;13.454;2023-04-07T01:42:43;8.17;;;5.40;;
6537;SDS011;3302;52.508;13.454;2023-04-07T01:45:11;7.20;;;5.30;;
6537;SDS011;3302;52.508;13.454;2023-04-07T01:47:38;7.03;;;4.70;;
6537;SDS011;3302;52.508;13.454;2023-04-07T01:50:04;7.33;;;5.33;;
6537;SDS011;3302;52.508;13.454;2023-04-07T01:52:33;9.17;;;4.80;;
6537;SDS011;3302;52.508;13.454;2023-04-07T01:55:00;7.67;;;4.90;;
6537;SDS011;3302;52.508;13.454;2023-04-07T01:57:30;8.00;;;5.03;;
6537;SDS011;3302;52.508;13.454;2023-04-07T01:59:56;6.13;;;4.83;;
6537;SDS011;3302;52.508;13.454;2023-04-07T02:02:21;7.53;;;5.27;;
6537;SDS011;3302;52.508;13.454;2023-04-07T02:07:19;7.40;;;4.77;;
6537;SDS011;3302;52.508;13.454;2023-04-07T02:10:05;9.87;;;5.20;;
6537;SDS011;3302;52.508;13.454;2023-04-07T02:12:36;10.47;;;5.80;;
6537;SDS011;3302;52.508;13.454;2023-04-07T02:15:04;8.47;;;5.13;;
6537;SDS011;3302;52.508;13.454;2023-04-07T02:17:33;10.03;;;5.73;;
6537;SDS011;3302;52.508;13.454;2023-04-07T02:20:02;8.23;;;5.40;;
6537;SDS011;3302;52.508;13.454;2023-04-07T02:22:29;9.47;;;6.17;;
6537;SDS011;3302;52.508;13.454;2023-04-07T02:24:57;10.03;;;6.27;;
6537;SDS011;3302;52.508;13.454;2023-04-07T02:27:22;11.83;;;6.47;;
6537;SDS011;3302;52.508;13.454;2023-04-07T02:29:48;8.43;;;5.53;;
6537;SDS011;3302;52.508;13.454;2023-04-07T02:32:14;10.20;;;5.53;;
6537;SDS011;3302;52.508;13.454;2023-04-07T02:34:42;8.50;;;4.87;;
6537;SDS011;3302;52.508;13.454;2023-04-07T02:37:07;8.63;;;5.13;;
6537;SDS011;3302;52.508;13.454;2023-04-07T02:39:33;8.27;;;5.07;;
6537;SDS011;3302;52.508;13.454;2023-04-07T02:41:59;7.47;;;5.00;;
6537;SDS011;3302;52.508;13.454;2023-04-07T02:44:25;8.80;;;4.67;;
6537;SDS011;3302;52.508;13.454;2023-04-07T02:46:51;7.87;;;4.70;;
6537;SDS011;3302;52.508;13.454;2023-04-07T02:49:16;6.50;;;4.93;;
6537;SDS011;3302;52.508;13.454;2023-04-07T02:51:42;7.90;;;5.20;;
6537;SDS011;3302;52.508;13.454;2023-04-07T02:54:08;8.43;;;5.00;;
6537;SDS011;3302;52.508;13.454;2023-04-07T02:56:34;9.20;;;5.40;;
6537;SDS011;3302;52.508;13.454;2023-04-07T02:58:59;8.93;;;5.53;;
6537;SDS011;3302;52.508;13.454;2023-04-07T03:01:25;11.10;;;5.70;;
6537;SDS011;3302;52.508;13.454;2023-04-07T03:03:52;10.63;;;5.90;;
6537;SDS011;3302;52.508;13.454;2023-04-07T03:06:17;10.10;;;5.93;;
6537;SDS011;3302;52.508;13.454;2023-04-07T03:08:43;9.70;;;5.60;;
6537;SDS011;3302;52.508;13.454;2023-04-07T03:11:09;9.93;;;5.43;;
6537;SDS011;3302;52.508;13.454;2023-04-07T03:13:34;10.37;;;6.07;;
6537;SDS011;3302;52.508;13.454;2023-04-07T03:16:00;9.00;;;5.73;;
6537;SDS011;3302;52.508;13.454;2023-04-07T03:18:26;12.50;;;5.70;;
6537;SDS011;3302;52.508;13.454;2023-04-07T03:20:52;9.87;;;5.67;;
6537;SDS011;3302;52.508;13.454;2023-04-07T03:23:19;7.50;;;5.50;;
6537;SDS011;3302;52.508;13.454;2023-04-07T03:25:45;8.97;;;4.80;;
6537;SDS011;3302;52.508;13.454;2023-04-07T03:28:11;8.47;;;5.00;;
6537;SDS011;3302;52.508;13.454;2023-04-07T03:30:36;8.17;;;5.07;;
6537;SDS011;3302;52.508;13.454;2023-04-07T03:33:02;10.80;;;5.83;;
6537;SDS011;3302;52.508;13.454;2023-04-07T03:35:28;6.47;;;4.90;;
6537;SDS011;3302;52.508;13.454;2023-04-07T03:37:54;6.47;;;4.70;;
6537;SDS011;3302;52.508;13.454;2023-04-07T03:40:19;7.07;;;4.60;;
6537;SDS011;3302;52.508;13.454;2023-04-07T03:42:46;6.33;;;4.57;;
6537;SDS011;3302;52.508;13.454;2023-04-07T03:45:12;7.07;;;5.10;;
6537;SDS011;3302;52.508;13.454;2023-04-07T03:47:38;6.93;;;4.83;;
6537;SDS011;3302;52.508;13.454;2023-04-07T03:50:04;7.63;;;4.97;;
6537;SDS011;3302;52.508;13.454;2023-04-07T03:52:30;7.77;;;5.03;;
6537;SDS011;3302;52.508;13.454;2023-04-07T03:54:56;8.57;;;4.97;;
6537;SDS011;3302;52.508;13.454;2023-04-07T03:57:22;7.10;;;5.10;;
6537;SDS011;3302;52.508;13.454;2023-04-07T03:59:48;5.90;;;4.53;;
6537;SDS011;3302;52.508;13.454;2023-04-07T04:02:15;7.73;;;4.70;;
6537;SDS011;3302;52.508;13.454;2023-04-07T04:04:42;7.47;;;4.90;;
6537;SDS011;3302;52.508;13.454;2023-04-07T04:07:07;7.10;;;4.60;;
6537;SDS011;3302;52.508;13.454;2023-04-07T04:09:33;7.57;;;5.70;;
6537;SDS011;3302;52.508;13.454;2023-04-07T04:11:59;8.13;;;5.07;;
6537;SDS011;3302;52.508;13.454;2023-04-07T04:14:25;7.13;;;4.77;;
6537;SDS011;3302;52.508;13.454;2023-04-07T04:16:52;7.90;;;5.07;;
6537;SDS011;3302;52.508;13.454;2023-04-07T04:19:18;7.87;;;4.70;;
6537;SDS011;3302;52.508;13.454;2023-04-07T04:21:44;5.70;;;4.73;;
6537;SDS011;3302;52.508;13.454;2023-04-07T04:24:10;8.30;;;4.30;;
6537;SDS011;3302;52.508;13.454;2023-04-07T04:26:36;8.27;;;4.90;;
6537;SDS011;3302;52.508;13.454;2023-04-07T04:29:01;6.90;;;4.30;;
6537;SDS011;3302;52.508;13.454;2023-04-07T04:31:27;6.87;;;4.60;;
6537;SDS011;3302;52.508;13.454;2023-04-07T04:33:53;7.33;;;4.87;;
6537;SDS011;3302;52.508;13.454;2023-04-07T04:36:19;6.87;;;4.67;;
6537;SDS011;3302;52.508;13.454;2023-04-07T04:38:45;7.43;;;4.83;;
6537;SDS011;3302;52.508;13.454;2023-04-07T04:41:10;6.87;;;4.50;;
6537;SDS011;3302;52.508;13.454;2023-04-07T04:43:36;9.93;;;5.10;;
6537;SDS011;3302;52.508;13.454;2023-04-07T04:46:02;7.67;;;5.10;;
6537;SDS011;3302;52.508;13.454;2023-04-07T04:48:28;6.13;;;4.80;;
6537;SDS011;3302;52.508;13.454;2023-04-07T04:50:53;7.03;;;5.07;;
6537;SDS011;3302;52.508;13.454;2023-04-07T04:53:19;7.10;;;5.00;;
6537;SDS011;3302;52.508;13.454;2023-04-07T04:55:45;6.97;;;5.20;;
6537;SDS011;3302;52.508;13.454;2023-04-07T04:58:16;7.67;;;4.80;;
6537;SDS011;3302;52.508;13.454;2023-04-07T05:00:44;6.83;;;4.93;;
6537;SDS011;3302;52.508;13.454;2023-04-07T05:03:10;7.97;;;5.23;;
6537;SDS011;3302;52.508;13.454;2023-04-07T05:05:36;6.57;;;5.17;;
6537;SDS011;3302;52.508;13.454;2023-04-07T05:08:02;7.00;;;5.60;;
6537;SDS011;3302;52.508;13.454;2023-04-07T05:10:28;6.90;;;5.00;;
6537;SDS011;3302;52.508;13.454;2023-04-07T05:12:54;7.67;;;4.93;;
6537;SDS011;3302;52.508;13.454;2023-04-07T05:15:21;8.03;;;5.17;;
6537;SDS011;3302;52.508;13.454;2023-04-07T05:17:47;7.73;;;4.77;;
6537;SDS011;3302;52.508;13.454;2023-04-07T05:20:14;9.47;;;5.27;;
6537;SDS011;3302;52.508;13.454;2023-04-07T05:22:41;8.23;;;5.73;;
6537;SDS011;3302;52.508;13.454;2023-04-07T05:25:07;7.73;;;5.20;;
6537;SDS011;3302;52.508;13.454;2023-04-07T05:27:33;6.97;;;5.43;;
6537;SDS011;3302;52.508;13.454;2023-04-07T05:29:59;6.83;;;5.17;;
6537;SDS011;3302;52.508;13.454;2023-04-07T05:32:25;6.83;;;5.00;;
6537;SDS011;3302;52.508;13.454;2023-04-07T05:34:52;7.77;;;5.83;;
6537;SDS011;3302;52.508;13.454;2023-04-07T05:37:18;8.10;;;5.80;;
6537;SDS011;3302;52.508;13.454;2023-04-07T05:39:43;9.67;;;5.30;;
6537;SDS011;3302;52.508;13.454;2023-04-07T05:42:09;11.93;;;6.00;;
6537;SDS011;3302;52.508;13.454;2023-04-07T05:44:35;9.10;;;5.23;;
6537;SDS011;3302;52.508;13.454;2023-04-07T05:47:01;9.80;;;6.43;;
6537;SDS011;3302;52.508;13.454;2023-04-07T05:49:29;8.43;;;5.87;;
6537;SDS011;3302;52.508;13.454;2023-04-07T05:51:55;8.23;;;5.50;;
6537;SDS011;3302;52.508;13.454;2023-04-07T05:54:21;9.43;;;5.50;;
6537;SDS011;3302;52.508;13.454;2023-04-07T05:56:47;7.80;;;4.97;;
6537;SDS011;3302;52.508;13.454;2023-04-07T05:59:13;9.57;;;5.93;;
6537;SDS011;3302;52.508;13.454;2023-04-07T06:01:38;9.67;;;5.87;;
6537;SDS011;3302;52.508;13.454;2023-04-07T06:04:04;10.67;;;6.23;;
6537;SDS011;3302;52.508;13.454;2023-04-07T06:06:30;7.90;;;5.80;;
6537;SDS011;3302;52.508;13.454;2023-04-07T06:08:55;7.20;;;5.20;;
6537;SDS011;3302;52.508;13.454;2023-04-07T06:11:21;6.83;;;5.17;;
6537;SDS011;3302;52.508;13.454;2023-04-07T06:13:47;8.47;;;5.40;;
6537;SDS011;3302;52.508;13.454;2023-04-07T06:16:13;7.23;;;5.60;;
6537;SDS011;3302;52.508;13.454;2023-04-07T06:18:39;8.40;;;5.60;;
6537;SDS011;3302;52.508;13.454;2023-04-07T06:21:05;9.03;;;6.00;;
6537;SDS011;3302;52.508;13.454;2023-04-07T06:23:31;7.70;;;5.93;;
6537;SDS011;3302;52.508;13.454;2023-04-07T06:25:57;8.47;;;6.10;;
6537;SDS011;3302;52.508;13.454;2023-04-07T06:28:23;9.60;;;6.20;;
6537;SDS011;3302;52.508;13.454;2023-04-07T06:30:49;8.23;;;6.23;;
6537;SDS011;3302;52.508;13.454;2023-04-07T06:33:14;7.47;;;5.67;;
6537;SDS011;3302;52.508;13.454;2023-04-07T06:35:40;7.87;;;5.57;;
6537;SDS011;3302;52.508;13.454;2023-04-07T06:38:07;10.37;;;6.10;;
6537;SDS011;3302;52.508;13.454;2023-04-07T06:40:35;9.03;;;5.90;;
6537;SDS011;3302;52.508;13.454;2023-04-07T06:43:01;10.37;;;6.63;;
6537;SDS011;3302;52.508;13.454;2023-04-07T06:45:28;9.07;;;6.17;;
6537;SDS011;3302;52.508;13.454;2023-04-07T06:47:54;8.50;;;6.40;;
6537;SDS011;3302;52.508;13.454;2023-04-07T06:50:20;8.40;;;5.63;;
6537;SDS011;3302;52.508;13.454;2023-04-07T06:52:46;10.77;;;6.33;;
6537;SDS011;3302;52.508;13.454;2023-04-07T06:55:12;7.70;;;6.00;;
6537;SDS011;3302;52.508;13.454;2023-04-07T06:57:38;8.83;;;5.53;;
6537;SDS011;3302;52.508;13.454;2023-04-07T07:00:04;8.73;;;6.03;;
6537;SDS011;3302;52.508;13.454;2023-04-07T07:02:32;9.43;;;6.00;;
6537;SDS011;3302;52.508;13.454;2023-04-07T07:04:58;8.00;;;5.80;;
6537;SDS011;3302;52.508;13.454;2023-04-07T07:07:24;7.70;;;6.20;;
6537;SDS011;3302;52.508;13.454;2023-04-07T07:09:50;12.37;;;7.20;;
6537;SDS011;3302;52.508;13.454;2023-04-07T07:12:16;8.57;;;6.30;;
6537;SDS011;3302;52.508;13.454;2023-04-07T07:14:42;9.07;;;6.00;;
6537;SDS011;3302;52.508;13.454;2023-04-07T07:17:08;7.80;;;6.20;;
6537;SDS011;3302;52.508;13.454;2023-04-07T07:19:34;8.77;;;6.20;;
6537;SDS011;3302;52.508;13.454;2023-04-07T07:22:00;9.53;;;6.10;;
6537;SDS011;3302;52.508;13.454;2023-04-07T07:24:28;8.40;;;5.83;;
6537;SDS011;3302;52.508;13.454;2023-04-07T07:26:54;8.10;;;5.50;;
6537;SDS011;3302;52.508;13.454;2023-04-07T07:29:21;9.40;;;5.90;;
6537;SDS011;3302;52.508;13.454;2023-04-07T07:31:47;7.87;;;6.07;;
6537;SDS011;3302;52.508;13.454;2023-04-07T07:34:13;7.87;;;5.73;;
6537;SDS011;3302;52.508;13.454;2023-04-07T07:36:38;9.10;;;5.80;;
6537;SDS011;3302;52.508;13.454;2023-04-07T07:39:04;10.57;;;5.50;;
6537;SDS011;3302;52.508;13.454;2023-04-07T07:41:30;5.93;;;5.13;;
6537;SDS011;3302;52.508;13.454;2023-04-07T07:43:56;7.67;;;4.97;;
6537;SDS011;3302;52.508;13.454;2023-04-07T07:46:22;7.33;;;5.43;;
6537;SDS011;3302;52.508;13.454;2023-04-07T07:48:50;7.30;;;5.57;;
6537;SDS011;3302;52.508;13.454;2023-04-07T07:51:16;7.50;;;5.20;;
6537;SDS011;3302;52.508;13.454;2023-04-07T07:53:42;6.77;;;5.07;;
6537;SDS011;3302;52.508;13.454;2023-04-07T07:56:09;7.50;;;5.30;;
6537;SDS011;3302;52.508;13.454;2023-04-07T07:58:35;9.77;;;5.07;;
6537;SDS011;3302;52.508;13.454;2023-04-07T08:01:01;7.43;;;4.70;;
6537;SDS011;3302;52.508;13.454;2023-04-07T08:03:27;7.27;;;4.93;;
6537;SDS011;3302;52.508;13.454;2023-04-07T08:05:53;7.40;;;4.83;;
6537;SDS011;3302;52.508;13.454;2023-04-07T08:08:19;8.00;;;5.00;;
6537;SDS011;3302;52.508;13.454;2023-04-07T08:10:45;5.80;;;4.40;;
6537;SDS011;3302;52.508;13.454;2023-04-07T08:13:10;6.33;;;4.80;;
6537;SDS011;3302;52.508;13.454;2023-04-07T08:15:36;8.33;;;5.27;;
6537;SDS011;3302;52.508;13.454;2023-04-07T08:18:03;6.30;;;4.67;;
6537;SDS011;3302;52.508;13.454;2023-04-07T08:20:30;7.03;;;4.40;;
6537;SDS011;3302;52.508;13.454;2023-04-07T08:22:56;6.07;;;4.77;;
6537;SDS011;3302;52.508;13.454;2023-04-07T08:25:23;5.33;;;4.33;;
6537;SDS011;3302;52.508;13.454;2023-04-07T08:27:48;6.60;;;4.60;;
6537;SDS011;3302;52.508;13.454;2023-04-07T08:30:14;9.50;;;4.30;;
6537;SDS011;3302;52.508;13.454;2023-04-07T08:32:41;5.97;;;4.20;;
6537;SDS011;3302;52.508;13.454;2023-04-07T08:35:09;5.87;;;4.37;;
6537;SDS011;3302;52.508;13.454;2023-04-07T08:37:35;6.03;;;4.17;;
6537;SDS011;3302;52.508;13.454;2023-04-07T08:40:03;5.57;;;4.00;;
6537;SDS011;3302;52.508;13.454;2023-04-07T08:42:30;6.23;;;4.43;;
6537;SDS011;3302;52.508;13.454;2023-04-07T08:45:01;6.17;;;4.43;;
6537;SDS011;3302;52.508;13.454;2023-04-07T08:47:29;8.23;;;4.33;;
6537;SDS011;3302;52.508;13.454;2023-04-07T08:49:59;7.90;;;4.10;;
6537;SDS011;3302;52.508;13.454;2023-04-07T08:52:30;6.97;;;4.43;;
6537;SDS011;3302;52.508;13.454;2023-04-07T08:55:10;8.30;;;4.10;;
6537;SDS011;3302;52.508;13.454;2023-04-07T08:57:36;5.70;;;3.77;;
6537;SDS011;3302;52.508;13.454;2023-04-07T09:00:02;6.13;;;4.03;;
6537;SDS011;3302;52.508;13.454;2023-04-07T09:02:32;6.20;;;4.37;;
6537;SDS011;3302;52.508;13.454;2023-04-07T09:05:02;9.00;;;4.37;;
6537;SDS011;3302;52.508;13.454;2023-04-07T09:07:31;5.80;;;3.67;;
6537;SDS011;3302;52.508;13.454;2023-04-07T09:09:57;4.63;;;3.83;;
6537;SDS011;3302;52.508;13.454;2023-04-07T09:12:23;4.47;;;3.30;;
6537;SDS011;3302;52.508;13.454;2023-04-07T09:14:49;5.07;;;3.87;;
6537;SDS011;3302;52.508;13.454;2023-04-07T09:17:16;5.73;;;3.70;;
6537;SDS011;3302;52.508;13.454;2023-04-07T09:19:42;4.27;;;3.40;;
6537;SDS011;3302;52.508;13.454;2023-04-07T09:22:08;6.10;;;3.90;;
6537;SDS011;3302;52.508;13.454;2023-04-07T09:24:36;6.23;;;4.20;;
6537;SDS011;3302;52.508;13.454;2023-04-07T09:27:07;6.23;;;4.33;;
6537;SDS011;3302;52.508;13.454;2023-04-07T09:29:41;6.00;;;3.97;;
6537;SDS011;3302;52.508;13.454;2023-04-07T09:32:08;5.83;;;3.33;;
6537;SDS011;3302;52.508;13.454;2023-04-07T09:34:35;9.70;;;5.27;;
6537;SDS011;3302;52.508;13.454;2023-04-07T09:37:05;7.67;;;4.47;;
6537;SDS011;3302;52.508;13.454;2023-04-07T09:39:36;5.97;;;4.40;;
6537;SDS011;3302;52.508;13.454;2023-04-07T09:42:16;7.27;;;4.40;;
6537;SDS011;3302;52.508;13.454;2023-04-07T09:44:42;7.17;;;4.33;;
6537;SDS011;3302;52.508;13.454;2023-04-07T09:47:08;7.10;;;4.63;;
6537;SDS011;3302;52.508;13.454;2023-04-07T09:49:47;5.77;;;4.37;;
6537;SDS011;3302;52.508;13.454;2023-04-07T09:52:18;5.87;;;4.33;;
6537;SDS011;3302;52.508;13.454;2023-04-07T09:54:47;5.63;;;4.00;;
6537;SDS011;3302;52.508;13.454;2023-04-07T09:57:15;7.13;;;4.63;;
6537;SDS011;3302;52.508;13.454;2023-04-07T09:59:43;5.60;;;4.20;;
6537;SDS011;3302;52.508;13.454;2023-04-07T10:02:12;6.00;;;3.57;;
6537;SDS011;3302;52.508;13.454;2023-04-07T10:04:38;6.00;;;3.90;;
6537;SDS011;3302;52.508;13.454;2023-04-07T10:07:05;5.73;;;3.90;;
6537;SDS011;3302;52.508;13.454;2023-04-07T10:09:31;4.93;;;3.37;;
6537;SDS011;3302;52.508;13.454;2023-04-07T10:11:57;4.63;;;3.27;;
6537;SDS011;3302;52.508;13.454;2023-04-07T10:14:25;5.07;;;3.20;;
6537;SDS011;3302;52.508;13.454;2023-04-07T10:16:52;5.73;;;3.50;;
6537;SDS011;3302;52.508;13.454;2023-04-07T10:19:18;4.40;;;3.37;;
6537;SDS011;3302;52.508;13.454;2023-04-07T10:21:45;5.57;;;3.20;;
6537;SDS011;3302;52.508;13.454;2023-04-07T10:27:32;6.07;;;3.40;;
6537;SDS011;3302;52.508;13.454;2023-04-07T10:30:20;4.13;;;3.10;;
6537;SDS011;3302;52.508;13.454;2023-04-07T10:32:51;4.97;;;3.10;;
6537;SDS011;3302;52.508;13.454;2023-04-07T10:35:18;4.73;;;3.37;;
6537;SDS011;3302;52.508;13.454;2023-04-07T10:40:35;4.43;;;3.20;;
6537;SDS011;3302;52.508;13.454;2023-04-07T10:43:01;5.13;;;3.30;;
6537;SDS011;3302;52.508;13.454;2023-04-07T10:48:23;3.53;;;2.73;;
6537;SDS011;3302;52.508;13.454;2023-04-07T10:53:31;5.33;;;3.03;;
6537;SDS011;3302;52.508;13.454;2023-04-07T10:55:58;4.20;;;3.20;;
6537;SDS011;3302;52.508;13.454;2023-04-07T10:58:25;5.37;;;3.20;;
6537;SDS011;3302;52.508;13.454;2023-04-07T11:03:25;5.23;;;3.80;;
6537;SDS011;3302;52.508;13.454;2023-04-07T11:06:01;4.60;;;3.57;;
6537;SDS011;3302;52.508;13.454;2023-04-07T11:08:38;6.73;;;3.97;;
6537;SDS011;3302;52.508;13.454;2023-04-07T11:11:10;4.33;;;3.23;;
6537;SDS011;3302;52.508;13.454;2023-04-07T11:16:11;9.23;;;4.87;;
6537;SDS011;3302;52.508;13.454;2023-04-07T11:18:38;5.97;;;4.53;;
6537;SDS011;3302;52.508;13.454;2023-04-07T11:21:05;5.53;;;4.30;;
6537;SDS011;3302;52.508;13.454;2023-04-07T11:23:38;9.53;;;5.07;;
6537;SDS011;3302;52.508;13.454;2023-04-07T11:26:05;7.23;;;5.47;;
6537;SDS011;3302;52.508;13.454;2023-04-07T11:28:33;9.33;;;7.10;;
6537;SDS011;3302;52.508;13.454;2023-04-07T11:30:59;12.67;;;8.20;;
6537;SDS011;3302;52.508;13.454;2023-04-07T11:33:25;11.33;;;9.53;;
6537;SDS011;3302;52.508;13.454;2023-04-07T11:35:55;11.27;;;10.07;;
6537;SDS011;3302;52.508;13.454;2023-04-07T11:38:30;12.37;;;11.07;;
6537;SDS011;3302;52.508;13.454;2023-04-07T11:41:14;13.77;;;11.50;;
6537;SDS011;3302;52.508;13.454;2023-04-07T11:43:40;10.97;;;9.73;;
6537;SDS011;3302;52.508;13.454;2023-04-07T11:46:10;11.00;;;9.00;;
6537;SDS011;3302;52.508;13.454;2023-04-07T11:48:38;9.80;;;8.40;;
6537;SDS011;3302;52.508;13.454;2023-04-07T11:51:05;10.27;;;7.93;;
6537;SDS011;3302;52.508;13.454;2023-04-07T11:53:39;8.77;;;6.97;;
6537;SDS011;3302;52.508;13.454;2023-04-07T11:56:12;7.70;;;6.27;;
6537;SDS011;3302;52.508;13.454;2023-04-07T11:58:46;7.63;;;6.53;;
6537;SDS011;3302;52.508;13.454;2023-04-07T12:01:16;7.13;;;6.10;;
6537;SDS011;3302;52.508;13.454;2023-04-07T12:04:15;7.27;;;6.20;;
6537;SDS011;3302;52.508;13.454;2023-04-07T12:06:36;7.47;;;6.63;;
6537;SDS011;3302;52.508;13.454;2023-04-07T12:09:03;6.90;;;5.87;;
6537;SDS011;3302;52.508;13.454;2023-04-07T12:11:30;9.23;;;6.50;;
6537;SDS011;3302;52.508;13.454;2023-04-07T12:13:57;7.43;;;6.27;;
6537;SDS011;3302;52.508;13.454;2023-04-07T12:16:23;7.73;;;5.93;;
6537;SDS011;3302;52.508;13.454;2023-04-07T12:18:49;12.33;;;6.70;;
6537;SDS011;3302;52.508;13.454;2023-04-07T12:21:16;8.20;;;6.37;;
6537;SDS011;3302;52.508;13.454;2023-04-07T12:23:42;8.10;;;5.97;;
6537;SDS011;3302;52.508;13.454;2023-04-07T12:26:08;8.60;;;6.50;;
6537;SDS011;3302;52.508;13.454;2023-04-07T12:28:36;8.50;;;6.07;;
6537;SDS011;3302;52.508;13.454;2023-04-07T12:31:02;8.13;;;5.67;;
6537;SDS011;3302;52.508;13.454;2023-04-07T12:33:28;7.40;;;5.90;;
6537;SDS011;3302;52.508;13.454;2023-04-07T12:35:55;8.70;;;6.17;;
6537;SDS011;3302;52.508;13.454;2023-04-07T12:38:21;8.37;;;6.30;;
6537;SDS011;3302;52.508;13.454;2023-04-07T12:40:47;9.00;;;6.47;;
6537;SDS011;3302;52.508;13.454;2023-04-07T12:43:13;8.30;;;6.60;;
6537;SDS011;3302;52.508;13.454;2023-04-07T12:45:38;10.00;;;7.10;;
6537;SDS011;3302;52.508;13.454;2023-04-07T12:48:04;8.93;;;6.43;;
6537;SDS011;3302;52.508;13.454;2023-04-07T12:50:30;8.77;;;6.57;;
6537;SDS011;3302;52.508;13.454;2023-04-07T12:52:56;9.50;;;7.07;;
6537;SDS011;3302;52.508;13.454;2023-04-07T12:55:27;10.10;;;6.77;;
6537;SDS011;3302;52.508;13.454;2023-04-07T12:57:54;10.53;;;6.33;;
6537;SDS011;3302;52.508;13.454;2023-04-07T13:00:20;6.27;;;4.43;;
6537;SDS011;3302;52.508;13.454;2023-04-07T13:02:46;5.07;;;3.80;;
6537;SDS011;3302;52.508;13.454;2023-04-07T13:05:12;6.73;;;4.27;;
6537;SDS011;3302;52.508;13.454;2023-04-07T13:07:38;5.60;;;4.00;;
6537;SDS011;3302;52.508;13.454;2023-04-07T13:10:04;5.53;;;3.73;;
6537;SDS011;3302;52.508;13.454;2023-04-07T13:12:32;5.63;;;4.20;;
6537;SDS011;3302;52.508;13.454;2023-04-07T13:14:58;3.80;;;3.27;;
6537;SDS011;3302;52.508;13.454;2023-04-07T13:17:24;6.13;;;4.00;;
6537;SDS011;3302;52.508;13.454;2023-04-07T13:19:49;4.27;;;3.47;;
6537;SDS011;3302;52.508;13.454;2023-04-07T13:22:15;4.33;;;3.30;;
6537;SDS011;3302;52.508;13.454;2023-04-07T13:24:42;6.17;;;3.97;;
6537;SDS011;3302;52.508;13.454;2023-04-07T13:27:08;3.70;;;3.00;;
6537;SDS011;3302;52.508;13.454;2023-04-07T13:29:34;5.10;;;3.37;;
6537;SDS011;3302;52.508;13.454;2023-04-07T13:32:09;4.83;;;3.53;;
6537;SDS011;3302;52.508;13.454;2023-04-07T13:34:39;4.53;;;3.47;;
6537;SDS011;3302;52.508;13.454;2023-04-07T13:37:05;4.53;;;3.63;;
6537;SDS011;3302;52.508;13.454;2023-04-07T13:39:31;4.60;;;3.67;;
6537;SDS011;3302;52.508;13.454;2023-04-07T13:41:57;5.57;;;3.90;;
6537;SDS011;3302;52.508;13.454;2023-04-07T13:44:24;5.27;;;4.23;;
6537;SDS011;3302;52.508;13.454;2023-04-07T13:46:51;5.67;;;3.80;;
6537;SDS011;3302;52.508;13.454;2023-04-07T13:49:18;4.60;;;3.70;;
6537;SDS011;3302;52.508;13.454;2023-04-07T13:51:43;3.93;;;3.10;;
6537;SDS011;3302;52.508;13.454;2023-04-07T13:54:09;4.67;;;3.37;;
6537;SDS011;3302;52.508;13.454;2023-04-07T13:56:35;6.70;;;3.60;;
6537;SDS011;3302;52.508;13.454;2023-04-07T13:59:03;4.30;;;3.60;;
6537;SDS011;3302;52.508;13.454;2023-04-07T14:01:30;3.77;;;3.30;;
6537;SDS011;3302;52.508;13.454;2023-04-07T14:03:57;3.97;;;3.03;;
6537;SDS011;3302;52.508;13.454;2023-04-07T14:06:23;4.97;;;3.97;;
6537;SDS011;3302;52.508;13.454;2023-04-07T14:08:50;3.83;;;3.00;;
6537;SDS011;3302;52.508;13.454;2023-04-07T14:11:17;5.00;;;3.50;;
6537;SDS011;3302;52.508;13.454;2023-04-07T14:13:44;4.00;;;3.40;;
6537;SDS011;3302;52.508;13.454;2023-04-07T14:16:10;4.77;;;3.77;;
6537;SDS011;3302;52.508;13.454;2023-04-07T14:18:36;5.67;;;3.70;;
6537;SDS011;3302;52.508;13.454;2023-04-07T14:21:03;4.20;;;3.43;;
6537;SDS011;3302;52.508;13.454;2023-04-07T14:23:29;5.03;;;3.63;;
6537;SDS011;3302;52.508;13.454;2023-04-07T14:25:56;4.10;;;3.20;;
6537;SDS011;3302;52.508;13.454;2023-04-07T14:28:22;4.40;;;3.43;;
6537;SDS011;3302;52.508;13.454;2023-04-07T14:30:48;5.37;;;4.07;;
6537;SDS011;3302;52.508;13.454;2023-04-07T14:33:14;4.73;;;3.53;;
6537;SDS011;3302;52.508;13.454;2023-04-07T14:35:41;6.10;;;3.53;;
6537;SDS011;3302;52.508;13.454;2023-04-07T14:38:07;5.07;;;3.60;;
6537;SDS011;3302;52.508;13.454;2023-04-07T14:40:33;5.07;;;3.80;;
6537;SDS011;3302;52.508;13.454;2023-04-07T14:43:00;4.00;;;3.00;;
6537;SDS011;3302;52.508;13.454;2023-04-07T14:45:27;4.20;;;3.30;;
6537;SDS011;3302;52.508;13.454;2023-04-07T14:47:53;4.70;;;3.67;;
6537;SDS011;3302;52.508;13.454;2023-04-07T14:50:18;4.53;;;3.23;;
6537;SDS011;3302;52.508;13.454;2023-04-07T14:52:44;4.37;;;3.20;;
6537;SDS011;3302;52.508;13.454;2023-04-07T14:55:10;4.33;;;3.47;;
6537;SDS011;3302;52.508;13.454;2023-04-07T14:57:36;5.43;;;3.53;;
6537;SDS011;3302;52.508;13.454;2023-04-07T15:00:03;4.53;;;3.50;;
6537;SDS011;3302;52.508;13.454;2023-04-07T15:02:31;4.13;;;3.20;;
6537;SDS011;3302;52.508;13.454;2023-04-07T15:04:58;4.30;;;3.40;;
6537;SDS011;3302;52.508;13.454;2023-04-07T15:07:24;4.43;;;3.83;;
6537;SDS011;3302;52.508;13.454;2023-04-07T15:09:50;4.07;;;3.27;;
6537;SDS011;3302;52.508;13.454;2023-04-07T15:12:16;4.73;;;3.17;;
6537;SDS011;3302;52.508;13.454;2023-04-07T15:14:45;6.53;;;4.23;;
6537;SDS011;3302;52.508;13.454;2023-04-07T15:17:14;6.67;;;4.10;;
6537;SDS011;3302;52.508;13.454;2023-04-07T15:19:40;4.13;;;3.37;;
6537;SDS011;3302;52.508;13.454;2023-04-07T15:22:06;4.47;;;3.70;;
6537;SDS011;3302;52.508;13.454;2023-04-07T15:24:31;6.23;;;4.33;;
6537;SDS011;3302;52.508;13.454;2023-04-07T15:26:57;8.57;;;4.53;;
6537;SDS011;3302;52.508;13.454;2023-04-07T15:29:23;6.03;;;4.33;;
6537;SDS011;3302;52.508;13.454;2023-04-07T15:31:49;5.97;;;4.07;;